createdAt,value
2023-02-27T00:01:59.980Z,0.90
2023-02-27T00:06:11.847Z,1.30
2023-02-27T00:10:23.463Z,1.10
2023-02-27T00:14:35.487Z,0.97
2023-02-27T00:18:46.984Z,0.93
2023-02-27T00:22:58.574Z,1.20
2023-02-27T00:27:10.102Z,1.00
2023-02-27T00:31:23.016Z,0.87
2023-02-27T00:35:34.730Z,1.03
2023-02-27T00:39:46.400Z,0.80
2023-02-27T00:43:58.083Z,0.80
2023-02-27T00:48:09.704Z,0.90
2023-02-27T00:52:21.397Z,1.23
2023-02-27T00:56:33.031Z,1.00
2023-02-27T01:00:44.748Z,1.43
2023-02-27T01:04:56.335Z,1.10
2023-02-27T01:09:08.868Z,1.20
2023-02-27T01:13:20.644Z,0.80
2023-02-27T01:17:32.788Z,0.90
2023-02-27T01:21:44.836Z,1.03
2023-02-27T01:25:56.465Z,0.80
2023-02-27T01:30:11.284Z,1.10
2023-02-27T01:34:22.932Z,1.00
2023-02-27T01:38:34.537Z,1.40
2023-02-27T01:42:47.197Z,1.20
2023-02-27T01:46:58.797Z,1.20
2023-02-27T01:51:14.441Z,1.50
2023-02-27T01:55:29.938Z,1.30
2023-02-27T01:59:42.337Z,1.10
2023-02-27T02:04:12.976Z,1.30
2023-02-27T02:08:28.824Z,0.90
2023-02-27T02:12:41.544Z,1.37
2023-02-27T02:17:15.988Z,1.10
2023-02-27T02:22:39.391Z,1.20
2023-02-27T02:27:28.590Z,1.03
2023-02-27T02:31:46.403Z,1.20
2023-02-27T02:36:01.003Z,1.10
2023-02-27T02:40:45.062Z,1.30
2023-02-27T02:45:15.339Z,1.00
2023-02-27T02:49:55.720Z,1.40
2023-02-27T02:54:16.344Z,1.10
2023-02-27T02:58:36.676Z,1.20
2023-02-27T03:02:55.694Z,1.33
2023-02-27T03:07:21.162Z,1.17
2023-02-27T03:11:39.310Z,1.30
2023-02-27T03:16:02.344Z,1.50
2023-02-27T03:20:31.639Z,1.07
2023-02-27T03:24:52.122Z,1.30
2023-02-27T03:29:10.152Z,1.20
2023-02-27T03:33:28.195Z,1.23
2023-02-27T03:37:59.058Z,1.00
2023-02-27T03:42:23.975Z,1.20
2023-02-27T03:46:55.298Z,1.20
2023-02-27T03:51:07.187Z,1.17
2023-02-27T03:55:30.156Z,1.50
2023-02-27T03:59:42.173Z,1.30
2023-02-27T04:04:09.604Z,1.63
2023-02-27T04:08:58.120Z,1.50
2023-02-27T04:13:43.850Z,1.60
2023-02-27T04:18:14.125Z,1.37
2023-02-27T04:22:44.580Z,1.30
2023-02-27T04:27:08.725Z,1.30
2023-02-27T04:31:54.793Z,1.20
2023-02-27T04:36:36.155Z,1.50
2023-02-27T04:40:58.094Z,1.30
2023-02-27T04:45:15.331Z,1.30
2023-02-27T04:49:31.831Z,1.40
2023-02-27T04:53:59.061Z,1.67
2023-02-27T04:58:39.911Z,1.30
2023-02-27T05:02:56.562Z,1.33
2023-02-27T05:07:11.278Z,1.30
2023-02-27T05:11:38.848Z,1.40
2023-02-27T05:16:01.385Z,1.33
2023-02-27T05:20:15.038Z,1.30
2023-02-27T05:24:54.205Z,1.23
2023-02-27T05:29:13.553Z,1.70
2023-02-27T05:33:35.092Z,1.80
2023-02-27T05:37:53.772Z,1.90
2023-02-27T05:42:13.016Z,2.10
2023-02-27T05:46:30.408Z,2.80
2023-02-27T05:50:43.681Z,2.37
2023-02-27T06:01:10.711Z,1.40
2023-02-27T06:05:24.807Z,2.00
2023-02-27T06:09:36.442Z,2.07
2023-02-27T06:13:48.044Z,1.70
2023-02-27T06:17:59.690Z,2.10
2023-02-27T06:22:11.693Z,2.20
2023-02-27T06:26:24.018Z,1.90
2023-02-27T06:30:36.182Z,1.80
2023-02-27T06:34:47.943Z,1.80
2023-02-27T06:38:59.593Z,2.10
2023-02-27T06:43:11.186Z,1.90
2023-02-27T06:47:22.914Z,3.30
2023-02-27T06:51:34.510Z,1.50
2023-02-27T06:55:46.161Z,1.40
2023-02-27T06:59:57.932Z,1.70
2023-02-27T07:04:14.261Z,2.50
2023-02-27T07:08:26.064Z,1.90
2023-02-27T07:12:38.532Z,1.77
2023-02-27T07:16:53.986Z,1.77
2023-02-27T07:21:05.816Z,2.10
2023-02-27T07:25:17.594Z,2.40
2023-02-27T07:29:29.278Z,2.10
2023-02-27T07:33:41.894Z,2.07
2023-02-27T07:37:53.598Z,1.90
2023-02-27T07:42:05.604Z,2.30
2023-02-27T07:46:18.799Z,1.90
2023-02-27T07:50:30.470Z,1.90
2023-02-27T07:54:42.153Z,1.70
2023-02-27T07:58:53.773Z,1.90
2023-02-27T08:03:05.624Z,1.33
2023-02-27T08:07:40.167Z,1.77
2023-02-27T08:11:51.875Z,1.70
2023-02-27T08:16:03.642Z,1.60
2023-02-27T08:20:16.281Z,1.30
2023-02-27T08:24:28.272Z,1.25
2023-02-27T08:28:39.912Z,1.60
2023-02-27T08:32:51.495Z,1.23
2023-02-27T08:37:03.652Z,1.70
2023-02-27T08:41:15.397Z,1.92
2023-02-27T08:45:27.329Z,1.67
2023-02-27T08:49:39.023Z,1.58
2023-02-27T08:53:50.857Z,1.50
2023-02-27T08:58:02.594Z,1.38
2023-02-27T09:02:14.263Z,1.42
2023-02-27T09:06:26.561Z,1.45
2023-02-27T09:10:38.363Z,1.40
2023-02-27T09:14:50.013Z,1.20
2023-02-27T09:19:01.630Z,1.48
2023-02-27T09:23:13.288Z,1.20
2023-02-27T09:27:25.934Z,0.90
2023-02-27T09:31:37.705Z,1.77
2023-02-27T09:35:49.500Z,0.95
2023-02-27T09:40:01.365Z,1.48
2023-02-27T09:44:46.351Z,1.20
2023-02-27T09:49:01.454Z,1.00
2023-02-27T09:53:22.805Z,1.20
2023-02-27T09:57:47.155Z,1.23
2023-02-27T10:02:18.870Z,0.95
2023-02-27T10:06:43.868Z,1.08
2023-02-27T10:11:07.407Z,1.02
2023-02-27T10:15:33.220Z,1.15
2023-02-27T10:19:48.382Z,0.77
2023-02-27T10:24:51.117Z,1.13
2023-02-27T10:29:16.546Z,0.90
2023-02-27T10:33:38.799Z,0.93
2023-02-27T10:37:56.447Z,1.10
2023-02-27T10:42:10.849Z,0.90
2023-02-27T10:46:27.504Z,1.20
2023-02-27T10:50:52.017Z,0.95
2023-02-27T10:55:20.209Z,1.10
2023-02-27T10:59:41.948Z,0.80
2023-02-27T11:03:56.780Z,1.08
2023-02-27T11:08:29.430Z,0.90
2023-02-27T11:12:43.496Z,0.68
2023-02-27T11:16:57.853Z,0.80
2023-02-27T11:21:22.717Z,0.77
2023-02-27T11:25:34.393Z,0.80
2023-02-27T11:29:59.071Z,0.60
2023-02-27T11:34:19.564Z,0.80
2023-02-27T11:38:32.767Z,0.47
2023-02-27T11:42:51.285Z,0.50
2023-02-27T11:47:15.914Z,0.70
2023-02-27T11:51:57.305Z,0.50
2023-02-27T11:56:13.343Z,0.40
2023-02-27T12:00:39.505Z,0.63
2023-02-27T12:05:06.641Z,0.77
2023-02-27T12:09:51.654Z,0.65
2023-02-27T12:14:15.605Z,0.70
2023-02-27T12:18:34.181Z,0.82
2023-02-27T12:22:48.722Z,0.70
2023-02-27T12:27:22.636Z,0.80
2023-02-27T12:31:46.424Z,0.93
2023-02-27T12:36:03.462Z,1.00
2023-02-27T12:40:17.425Z,0.73
2023-02-27T12:44:38.089Z,1.13
2023-02-27T12:49:23.492Z,0.95
2023-02-27T12:53:59.168Z,0.80
2023-02-27T12:58:16.860Z,0.98
2023-02-27T13:02:50.258Z,0.93
2023-02-27T13:07:08.507Z,0.80
2023-02-27T13:11:27.582Z,0.70
2023-02-27T13:15:45.378Z,0.50
2023-02-27T13:20:18.806Z,0.80
2023-02-27T13:24:32.208Z,1.20
2023-02-27T13:28:44.500Z,0.80
2023-02-27T13:33:20.918Z,0.98
2023-02-27T13:37:53.937Z,0.80
2023-02-27T13:42:25.358Z,0.95
2023-02-27T13:46:36.970Z,0.93
2023-02-27T13:50:50.319Z,0.82
2023-02-27T13:55:11.861Z,0.90
2023-02-27T13:59:30.771Z,0.90
2023-02-27T14:03:42.604Z,1.20
2023-02-27T14:08:25.282Z,0.90
2023-02-27T14:12:45.871Z,1.10
2023-02-27T14:16:59.010Z,0.68
2023-02-27T14:21:10.587Z,1.00
2023-02-27T14:25:31.981Z,1.33
2023-02-27T14:29:46.580Z,1.00
2023-02-27T14:34:05.063Z,1.10
2023-02-27T14:38:20.495Z,1.00
2023-02-27T14:43:21.938Z,1.07
2023-02-27T14:47:36.642Z,0.90
2023-02-27T14:51:48.712Z,0.90
2023-02-27T14:56:01.076Z,1.27
2023-02-27T15:00:39.444Z,0.70
2023-02-27T15:04:56.065Z,1.07
2023-02-27T15:09:08.228Z,0.97
2023-02-27T15:13:30.298Z,1.13
2023-02-27T15:17:46.113Z,1.00
2023-02-27T15:22:00.167Z,1.10
2023-02-27T15:26:14.281Z,1.73
2023-02-27T15:30:26.008Z,1.20
2023-02-27T15:34:37.687Z,0.93
2023-02-27T15:39:08.376Z,0.90
2023-02-27T15:43:21.738Z,0.90
2023-02-27T15:47:35.821Z,1.07
2023-02-27T15:51:54.886Z,1.10
2023-02-27T15:56:13.034Z,0.90
2023-02-27T16:00:24.993Z,1.40
2023-02-27T16:04:36.667Z,1.30
2023-02-27T16:08:53.874Z,1.10
2023-02-27T16:13:27.639Z,1.10
2023-02-27T16:17:39.180Z,0.80
2023-02-27T16:22:27.209Z,1.10
2023-02-27T16:26:38.789Z,0.83
2023-02-27T16:30:54.213Z,1.07
2023-02-27T16:35:27.505Z,0.97
2023-02-27T16:39:39.003Z,1.00
2023-02-27T16:43:53.064Z,0.97
2023-02-27T16:48:05.209Z,1.10
2023-02-27T16:52:16.780Z,1.07
2023-02-27T16:56:38.117Z,1.33
2023-02-27T17:00:50.216Z,1.10
2023-02-27T17:05:02.743Z,1.77
2023-02-27T17:09:14.377Z,2.37
2023-02-27T17:13:25.950Z,4.13
2023-02-27T17:17:37.526Z,1.40
2023-02-27T17:21:49.397Z,2.03
2023-02-27T17:26:00.953Z,1.30
2023-02-27T17:30:14.026Z,3.20
2023-02-27T17:34:25.568Z,1.70
2023-02-27T17:38:37.331Z,1.50
2023-02-27T17:43:13.770Z,1.63
2023-02-27T17:47:25.499Z,1.70
2023-02-27T17:51:37.167Z,1.60
2023-02-27T17:55:48.660Z,1.20
2023-02-27T18:00:00.130Z,1.60
2023-02-27T18:04:12.646Z,1.70
2023-02-27T18:08:24.344Z,2.00
2023-02-27T18:12:36.830Z,1.57
2023-02-27T18:16:49.755Z,1.70
2023-02-27T18:21:03.956Z,1.67
2023-02-27T18:25:16.806Z,2.00
2023-02-27T18:29:28.354Z,2.10
2023-02-27T18:33:39.863Z,2.60
2023-02-27T18:37:52.104Z,2.07
2023-02-27T18:42:06.446Z,2.40
2023-02-27T18:46:18.641Z,1.70
2023-02-27T18:50:30.775Z,1.40
2023-02-27T18:54:43.142Z,1.53
2023-02-27T18:58:57.996Z,1.40
2023-02-27T19:03:09.608Z,1.77
2023-02-27T19:07:23.320Z,1.97
2023-02-27T19:11:35.726Z,2.10
2023-02-27T19:15:47.461Z,1.30
2023-02-27T19:19:59.477Z,1.90
2023-02-27T19:24:12.248Z,1.43
2023-02-27T19:28:23.761Z,1.80
2023-02-27T19:32:35.281Z,2.30
2023-02-27T19:36:46.894Z,2.93
2023-02-27T19:41:07.153Z,1.97
2023-02-27T19:45:18.872Z,1.97
2023-02-27T19:49:30.470Z,1.77
2023-02-27T19:53:45.877Z,2.33
2023-02-27T19:57:57.444Z,2.27
2023-02-27T20:02:11.463Z,2.13
2023-02-27T20:06:25.320Z,2.30
2023-02-27T20:10:37.246Z,2.10
2023-02-27T20:14:48.831Z,2.07
2023-02-27T20:19:00.355Z,1.97
2023-02-27T20:23:15.320Z,2.20
2023-02-27T20:27:27.359Z,2.63
2023-02-27T20:31:41.213Z,2.57
2023-02-27T20:35:52.798Z,2.20
2023-02-27T20:40:04.786Z,2.00
2023-02-27T20:44:16.470Z,2.03
2023-02-27T20:48:27.990Z,2.20
2023-02-27T20:52:39.652Z,2.50
2023-02-27T20:56:57.480Z,2.80
2023-02-27T21:01:11.573Z,2.90
2023-02-27T21:05:23.219Z,2.43
2023-02-27T21:09:34.855Z,2.20
2023-02-27T21:13:47.192Z,2.13
2023-02-27T21:17:58.771Z,2.50
2023-02-27T21:22:14.483Z,2.40
2023-02-27T21:26:35.229Z,2.20
2023-02-27T21:30:46.950Z,2.80
2023-02-27T21:34:58.583Z,3.47
2023-02-27T21:39:18.143Z,2.30
2023-02-27T21:43:29.729Z,2.27
2023-02-27T21:47:41.316Z,1.83
2023-02-27T21:52:10.466Z,1.97
2023-02-27T21:56:21.985Z,1.93
2023-02-27T22:00:33.673Z,1.93
2023-02-27T22:04:45.273Z,2.70
2023-02-27T22:08:58.011Z,2.57
2023-02-27T22:13:09.591Z,2.50
2023-02-27T22:17:23.277Z,2.70
2023-02-27T22:21:35.946Z,2.37
2023-02-27T22:25:47.535Z,2.53
2023-02-27T22:29:59.123Z,2.10
2023-02-27T22:34:15.113Z,2.27
2023-02-27T22:38:26.752Z,2.03
2023-02-27T22:42:38.420Z,1.90
2023-02-27T22:46:50.200Z,2.20
2023-02-27T22:51:15.401Z,2.13
2023-02-27T22:55:26.955Z,2.13
2023-02-27T22:59:38.695Z,2.10
2023-02-27T23:03:52.038Z,1.90
2023-02-27T23:08:03.669Z,1.83
2023-02-27T23:12:15.214Z,2.43
2023-02-27T23:16:27.069Z,2.20
2023-02-27T23:20:39.289Z,1.93
2023-02-27T23:24:50.927Z,2.10
2023-02-27T23:29:02.593Z,1.87
2023-02-27T23:33:14.201Z,1.93
2023-02-27T23:37:25.758Z,2.10
2023-02-27T23:41:37.376Z,2.00
2023-02-27T23:45:49.012Z,2.00
2023-02-27T23:50:00.597Z,2.00
2023-02-27T23:54:12.248Z,1.90
2023-02-27T23:58:23.983Z,2.00
